sensor_id;sensor_type;location;lat;lon;timestamp;P1;durP1;ratioP1;P2;durP2;ratioP2
47259;SDS011;32999;52.412;4.890;2023-04-16T00:02:28;7.53;;;2.65;;
47259;SDS011;32999;52.412;4.890;2023-04-16T00:07:30;9.27;;;3.30;;
47259;SDS011;32999;52.412;4.890;2023-04-16T00:12:33;12.65;;;3.10;;
47259;SDS011;32999;52.412;4.890;2023-04-16T00:17:35;12.60;;;3.03;;
47259;SDS011;32999;52.412;4.890;2023-04-16T00:22:38;11.68;;;4.13;;
47259;SDS011;32999;52.412;4.890;2023-04-16T00:27:41;7.20;;;2.60;;
47259;SDS011;32999;52.412;4.890;2023-04-16T00:32:43;7.68;;;2.67;;
47259;SDS011;32999;52.412;4.890;2023-04-16T00:37:44;14.05;;;4.47;;
47259;SDS011;32999;52.412;4.890;2023-04-16T00:42:48;7.80;;;3.05;;
47259;SDS011;32999;52.412;4.890;2023-04-16T00:47:49;10.02;;;2.45;;
47259;SDS011;32999;52.412;4.890;2023-04-16T00:52:53;5.97;;;2.22;;
47259;SDS011;32999;52.412;4.890;2023-04-16T00:57:58;8.40;;;2.42;;
47259;SDS011;32999;52.412;4.890;2023-04-16T01:03:00;13.50;;;2.80;;
47259;SDS011;32999;52.412;4.890;2023-04-16T01:08:02;6.63;;;2.42;;
47259;SDS011;32999;52.412;4.890;2023-04-16T01:13:05;8.27;;;3.65;;
47259;SDS011;32999;52.412;4.890;2023-04-16T01:18:12;10.88;;;2.67;;
47259;SDS011;32999;52.412;4.890;2023-04-16T01:23:16;10.30;;;2.40;;
47259;SDS011;32999;52.412;4.890;2023-04-16T01:28:18;6.40;;;2.17;;
47259;SDS011;32999;52.412;4.890;2023-04-16T01:33:21;7.90;;;2.63;;
47259;SDS011;32999;52.412;4.890;2023-04-16T01:38:25;9.35;;;2.55;;
47259;SDS011;32999;52.412;4.890;2023-04-16T01:43:26;10.48;;;2.72;;
47259;SDS011;32999;52.412;4.890;2023-04-16T01:48:28;16.35;;;2.88;;
47259;SDS011;32999;52.412;4.890;2023-04-16T01:53:31;9.38;;;3.35;;
47259;SDS011;32999;52.412;4.890;2023-04-16T01:58:33;7.35;;;1.98;;
47259;SDS011;32999;52.412;4.890;2023-04-16T02:03:35;13.75;;;2.60;;
47259;SDS011;32999;52.412;4.890;2023-04-16T02:08:39;9.48;;;1.88;;
47259;SDS011;32999;52.412;4.890;2023-04-16T02:13:41;7.78;;;2.05;;
47259;SDS011;32999;52.412;4.890;2023-04-16T02:18:43;9.38;;;2.17;;
47259;SDS011;32999;52.412;4.890;2023-04-16T02:23:46;7.78;;;2.50;;
47259;SDS011;32999;52.412;4.890;2023-04-16T02:28:51;8.23;;;2.03;;
47259;SDS011;32999;52.412;4.890;2023-04-16T02:33:53;7.72;;;3.15;;
47259;SDS011;32999;52.412;4.890;2023-04-16T02:38:57;9.90;;;2.60;;
47259;SDS011;32999;52.412;4.890;2023-04-16T02:43:59;12.23;;;4.22;;
47259;SDS011;32999;52.412;4.890;2023-04-16T02:49:01;10.77;;;2.70;;
47259;SDS011;32999;52.412;4.890;2023-04-16T02:54:04;7.20;;;2.53;;
47259;SDS011;32999;52.412;4.890;2023-04-16T02:59:05;11.90;;;3.00;;
47259;SDS011;32999;52.412;4.890;2023-04-16T03:04:07;9.13;;;4.10;;
47259;SDS011;32999;52.412;4.890;2023-04-16T03:09:10;15.73;;;4.50;;
47259;SDS011;32999;52.412;4.890;2023-04-16T03:14:12;12.07;;;4.05;;
47259;SDS011;32999;52.412;4.890;2023-04-16T03:19:14;15.63;;;5.20;;
47259;SDS011;32999;52.412;4.890;2023-04-16T03:24:17;11.38;;;3.78;;
47259;SDS011;32999;52.412;4.890;2023-04-16T03:29:19;13.00;;;4.45;;
47259;SDS011;32999;52.412;4.890;2023-04-16T03:34:21;11.63;;;4.78;;
47259;SDS011;32999;52.412;4.890;2023-04-16T03:39:24;15.10;;;5.45;;
47259;SDS011;32999;52.412;4.890;2023-04-16T03:44:25;17.10;;;6.13;;
47259;SDS011;32999;52.412;4.890;2023-04-16T03:49:27;18.55;;;5.18;;
47259;SDS011;32999;52.412;4.890;2023-04-16T03:54:30;16.65;;;6.13;;
47259;SDS011;32999;52.412;4.890;2023-04-16T03:59:32;16.70;;;4.57;;
47259;SDS011;32999;52.412;4.890;2023-04-16T04:04:34;16.77;;;5.63;;
47259;SDS011;32999;52.412;4.890;2023-04-16T04:09:37;16.60;;;6.45;;
47259;SDS011;32999;52.412;4.890;2023-04-16T04:14:39;18.73;;;6.07;;
47259;SDS011;32999;52.412;4.890;2023-04-16T04:19:40;27.40;;;6.35;;
47259;SDS011;32999;52.412;4.890;2023-04-16T04:24:44;16.02;;;5.93;;
47259;SDS011;32999;52.412;4.890;2023-04-16T04:29:45;17.50;;;7.13;;
47259;SDS011;32999;52.412;4.890;2023-04-16T04:34:47;24.40;;;7.47;;
47259;SDS011;32999;52.412;4.890;2023-04-16T04:39:51;20.10;;;6.20;;
47259;SDS011;32999;52.412;4.890;2023-04-16T04:44:57;16.38;;;7.38;;
47259;SDS011;32999;52.412;4.890;2023-04-16T04:49:58;16.80;;;6.00;;
47259;SDS011;32999;52.412;4.890;2023-04-16T04:55:01;17.05;;;6.20;;
47259;SDS011;32999;52.412;4.890;2023-04-16T05:00:04;24.92;;;6.07;;
47259;SDS011;32999;52.412;4.890;2023-04-16T05:05:06;18.67;;;5.90;;
47259;SDS011;32999;52.412;4.890;2023-04-16T05:10:10;17.67;;;6.80;;
47259;SDS011;32999;52.412;4.890;2023-04-16T05:15:12;15.15;;;5.82;;
47259;SDS011;32999;52.412;4.890;2023-04-16T05:20:14;15.85;;;6.03;;
47259;SDS011;32999;52.412;4.890;2023-04-16T05:25:17;25.27;;;7.68;;
47259;SDS011;32999;52.412;4.890;2023-04-16T05:30:19;18.15;;;5.93;;
47259;SDS011;32999;52.412;4.890;2023-04-16T05:35:20;25.42;;;6.07;;
47259;SDS011;32999;52.412;4.890;2023-04-16T05:40:23;15.15;;;5.55;;
47259;SDS011;32999;52.412;4.890;2023-04-16T05:45:26;31.58;;;9.65;;
47259;SDS011;32999;52.412;4.890;2023-04-16T05:50:27;27.30;;;9.60;;
47259;SDS011;32999;52.412;4.890;2023-04-16T05:55:30;16.70;;;6.82;;
47259;SDS011;32999;52.412;4.890;2023-04-16T06:00:32;14.93;;;6.40;;
47259;SDS011;32999;52.412;4.890;2023-04-16T06:05:34;18.52;;;6.15;;
47259;SDS011;32999;52.412;4.890;2023-04-16T06:10:37;23.08;;;6.03;;
47259;SDS011;32999;52.412;4.890;2023-04-16T06:15:39;21.40;;;7.40;;
47259;SDS011;32999;52.412;4.890;2023-04-16T06:20:41;14.10;;;5.18;;
47259;SDS011;32999;52.412;4.890;2023-04-16T06:25:44;18.23;;;5.55;;
47259;SDS011;32999;52.412;4.890;2023-04-16T06:30:46;17.92;;;6.50;;
47259;SDS011;32999;52.412;4.890;2023-04-16T06:35:48;16.42;;;5.80;;
47259;SDS011;32999;52.412;4.890;2023-04-16T06:40:51;17.90;;;6.30;;
47259;SDS011;32999;52.412;4.890;2023-04-16T06:45:53;19.25;;;6.30;;
47259;SDS011;32999;52.412;4.890;2023-04-16T06:50:54;16.55;;;5.50;;
47259;SDS011;32999;52.412;4.890;2023-04-16T06:55:57;16.67;;;5.97;;
47259;SDS011;32999;52.412;4.890;2023-04-16T07:00:59;20.45;;;5.78;;
47259;SDS011;32999;52.412;4.890;2023-04-16T07:06:05;16.48;;;5.57;;
47259;SDS011;32999;52.412;4.890;2023-04-16T07:11:11;13.65;;;5.03;;
47259;SDS011;32999;52.412;4.890;2023-04-16T07:16:12;13.05;;;5.35;;
47259;SDS011;32999;52.412;4.890;2023-04-16T07:21:14;16.33;;;5.07;;
47259;SDS011;32999;52.412;4.890;2023-04-16T07:26:17;16.02;;;5.22;;
47259;SDS011;32999;52.412;4.890;2023-04-16T07:31:19;11.50;;;4.93;;
47259;SDS011;32999;52.412;4.890;2023-04-16T07:36:21;12.13;;;5.30;;
47259;SDS011;32999;52.412;4.890;2023-04-16T07:41:24;12.02;;;5.25;;
47259;SDS011;32999;52.412;4.890;2023-04-16T07:46:26;15.30;;;5.28;;
47259;SDS011;32999;52.412;4.890;2023-04-16T07:51:27;13.75;;;5.00;;
47259;SDS011;32999;52.412;4.890;2023-04-16T07:56:33;18.10;;;6.38;;
47259;SDS011;32999;52.412;4.890;2023-04-16T08:01:35;18.27;;;6.45;;
47259;SDS011;32999;52.412;4.890;2023-04-16T08:06:36;17.27;;;5.28;;
47259;SDS011;32999;52.412;4.890;2023-04-16T08:11:40;17.80;;;6.95;;
47259;SDS011;32999;52.412;4.890;2023-04-16T08:16:41;16.90;;;6.70;;
47259;SDS011;32999;52.412;4.890;2023-04-16T08:21:43;15.48;;;5.50;;
47259;SDS011;32999;52.412;4.890;2023-04-16T08:26:48;20.38;;;6.43;;
47259;SDS011;32999;52.412;4.890;2023-04-16T08:31:49;13.32;;;5.35;;
47259;SDS011;32999;52.412;4.890;2023-04-16T08:36:51;11.95;;;5.65;;
47259;SDS011;32999;52.412;4.890;2023-04-16T08:41:54;9.65;;;5.35;;
47259;SDS011;32999;52.412;4.890;2023-04-16T08:46:59;16.17;;;4.68;;
47259;SDS011;32999;52.412;4.890;2023-04-16T08:52:01;12.10;;;4.93;;
47259;SDS011;32999;52.412;4.890;2023-04-16T08:57:08;14.98;;;5.63;;
47259;SDS011;32999;52.412;4.890;2023-04-16T09:02:12;13.63;;;4.78;;
47259;SDS011;32999;52.412;4.890;2023-04-16T09:07:13;12.85;;;6.15;;
47259;SDS011;32999;52.412;4.890;2023-04-16T09:12:18;13.13;;;4.75;;
47259;SDS011;32999;52.412;4.890;2023-04-16T09:17:24;13.45;;;5.53;;
47259;SDS011;32999;52.412;4.890;2023-04-16T09:22:26;18.67;;;7.53;;
47259;SDS011;32999;52.412;4.890;2023-04-16T09:27:29;12.65;;;5.85;;
47259;SDS011;32999;52.412;4.890;2023-04-16T09:32:31;15.50;;;5.77;;
47259;SDS011;32999;52.412;4.890;2023-04-16T09:37:33;14.10;;;5.60;;
47259;SDS011;32999;52.412;4.890;2023-04-16T09:42:36;11.77;;;6.13;;
47259;SDS011;32999;52.412;4.890;2023-04-16T09:47:39;19.17;;;7.70;;
47259;SDS011;32999;52.412;4.890;2023-04-16T09:52:42;12.02;;;5.68;;
47259;SDS011;32999;52.412;4.890;2023-04-16T09:58:02;16.05;;;5.30;;
47259;SDS011;32999;52.412;4.890;2023-04-16T10:03:08;11.90;;;5.10;;
47259;SDS011;32999;52.412;4.890;2023-04-16T10:08:19;14.45;;;5.13;;
47259;SDS011;32999;52.412;4.890;2023-04-16T10:13:23;13.30;;;6.35;;
47259;SDS011;32999;52.412;4.890;2023-04-16T10:18:26;16.73;;;4.82;;
47259;SDS011;32999;52.412;4.890;2023-04-16T10:23:32;11.23;;;4.60;;
47259;SDS011;32999;52.412;4.890;2023-04-16T10:28:36;18.88;;;6.72;;
47259;SDS011;32999;52.412;4.890;2023-04-16T10:33:39;16.20;;;6.20;;
47259;SDS011;32999;52.412;4.890;2023-04-16T10:38:46;14.43;;;6.27;;
47259;SDS011;32999;52.412;4.890;2023-04-16T10:44:02;16.58;;;5.63;;
47259;SDS011;32999;52.412;4.890;2023-04-16T10:49:12;16.58;;;6.70;;
47259;SDS011;32999;52.412;4.890;2023-04-16T10:54:18;18.50;;;6.38;;
47259;SDS011;32999;52.412;4.890;2023-04-16T10:59:28;16.52;;;5.80;;
47259;SDS011;32999;52.412;4.890;2023-04-16T11:04:33;20.75;;;6.28;;
47259;SDS011;32999;52.412;4.890;2023-04-16T11:09:43;21.98;;;7.22;;
47259;SDS011;32999;52.412;4.890;2023-04-16T11:14:49;20.80;;;6.72;;
47259;SDS011;32999;52.412;4.890;2023-04-16T11:24:53;22.50;;;6.95;;
47259;SDS011;32999;52.412;4.890;2023-04-16T11:29:57;28.20;;;7.53;;
47259;SDS011;32999;52.412;4.890;2023-04-16T11:35:04;18.55;;;7.35;;
47259;SDS011;32999;52.412;4.890;2023-04-16T12:22:51;20.52;;;8.45;;
47259;SDS011;32999;52.412;4.890;2023-04-16T12:27:56;12.55;;;5.43;;
47259;SDS011;32999;52.412;4.890;2023-04-16T12:33:13;14.85;;;5.93;;
47259;SDS011;32999;52.412;4.890;2023-04-16T12:38:17;12.80;;;5.10;;
47259;SDS011;32999;52.412;4.890;2023-04-16T12:43:20;14.73;;;4.60;;
47259;SDS011;32999;52.412;4.890;2023-04-16T12:53:27;13.23;;;5.90;;
47259;SDS011;32999;52.412;4.890;2023-04-16T12:58:29;12.05;;;5.72;;
47259;SDS011;32999;52.412;4.890;2023-04-16T13:03:31;13.05;;;5.80;;
47259;SDS011;32999;52.412;4.890;2023-04-16T13:08:36;14.27;;;6.03;;
47259;SDS011;32999;52.412;4.890;2023-04-16T13:13:38;17.25;;;5.93;;
47259;SDS011;32999;52.412;4.890;2023-04-16T13:18:41;12.27;;;6.15;;
47259;SDS011;32999;52.412;4.890;2023-04-16T13:23:44;12.90;;;5.82;;
47259;SDS011;32999;52.412;4.890;2023-04-16T13:28:46;14.48;;;7.10;;
47259;SDS011;32999;52.412;4.890;2023-04-16T13:33:48;14.27;;;5.72;;
47259;SDS011;32999;52.412;4.890;2023-04-16T13:38:51;17.92;;;6.97;;
47259;SDS011;32999;52.412;4.890;2023-04-16T13:43:54;20.15;;;7.97;;
47259;SDS011;32999;52.412;4.890;2023-04-16T13:48:56;17.85;;;6.75;;
47259;SDS011;32999;52.412;4.890;2023-04-16T13:54:09;14.25;;;6.63;;
47259;SDS011;32999;52.412;4.890;2023-04-16T13:59:11;16.50;;;6.38;;
47259;SDS011;32999;52.412;4.890;2023-04-16T14:04:15;18.70;;;7.53;;
47259;SDS011;32999;52.412;4.890;2023-04-16T14:09:23;20.08;;;7.05;;
47259;SDS011;32999;52.412;4.890;2023-04-16T14:14:27;19.08;;;7.13;;
47259;SDS011;32999;52.412;4.890;2023-04-16T14:19:29;18.08;;;7.47;;
47259;SDS011;32999;52.412;4.890;2023-04-16T14:24:34;12.95;;;6.63;;
47259;SDS011;32999;52.412;4.890;2023-04-16T14:29:36;10.43;;;5.60;;
47259;SDS011;32999;52.412;4.890;2023-04-16T14:34:39;15.30;;;7.75;;
47259;SDS011;32999;52.412;4.890;2023-04-16T14:39:43;17.23;;;7.03;;
47259;SDS011;32999;52.412;4.890;2023-04-16T14:44:45;16.25;;;7.78;;
47259;SDS011;32999;52.412;4.890;2023-04-16T14:49:47;10.80;;;6.20;;
47259;SDS011;32999;52.412;4.890;2023-04-16T14:54:50;11.73;;;6.43;;
47259;SDS011;32999;52.412;4.890;2023-04-16T14:59:56;14.07;;;6.93;;
47259;SDS011;32999;52.412;4.890;2023-04-16T15:04:59;15.43;;;6.88;;
47259;SDS011;32999;52.412;4.890;2023-04-16T15:10:11;14.32;;;6.78;;
47259;SDS011;32999;52.412;4.890;2023-04-16T15:15:15;15.23;;;7.88;;
47259;SDS011;32999;52.412;4.890;2023-04-16T15:20:29;16.60;;;7.53;;
47259;SDS011;32999;52.412;4.890;2023-04-16T15:25:33;16.25;;;7.60;;
47259;SDS011;32999;52.412;4.890;2023-04-16T15:30:35;20.02;;;8.02;;
47259;SDS011;32999;52.412;4.890;2023-04-16T15:35:38;19.40;;;8.80;;
47259;SDS011;32999;52.412;4.890;2023-04-16T15:40:42;20.55;;;9.02;;
47259;SDS011;32999;52.412;4.890;2023-04-16T15:51:08;14.20;;;7.43;;
47259;SDS011;32999;52.412;4.890;2023-04-16T15:56:17;22.73;;;10.35;;
47259;SDS011;32999;52.412;4.890;2023-04-16T16:01:19;13.77;;;7.38;;
47259;SDS011;32999;52.412;4.890;2023-04-16T16:06:21;15.50;;;8.13;;
47259;SDS011;32999;52.412;4.890;2023-04-16T16:11:24;19.20;;;9.07;;
47259;SDS011;32999;52.412;4.890;2023-04-16T16:16:27;21.83;;;8.63;;
47259;SDS011;32999;52.412;4.890;2023-04-16T16:21:29;15.68;;;7.20;;
47259;SDS011;32999;52.412;4.890;2023-04-16T16:26:34;19.35;;;7.85;;
47259;SDS011;32999;52.412;4.890;2023-04-16T16:31:35;17.20;;;7.47;;
47259;SDS011;32999;52.412;4.890;2023-04-16T16:36:37;17.58;;;8.32;;
47259;SDS011;32999;52.412;4.890;2023-04-16T16:41:40;12.60;;;7.35;;
47259;SDS011;32999;52.412;4.890;2023-04-16T16:46:42;17.88;;;8.32;;
47259;SDS011;32999;52.412;4.890;2023-04-16T16:51:43;15.23;;;8.13;;
47259;SDS011;32999;52.412;4.890;2023-04-16T16:56:47;23.00;;;8.55;;
47259;SDS011;32999;52.412;4.890;2023-04-16T17:01:49;13.85;;;7.32;;
47259;SDS011;32999;52.412;4.890;2023-04-16T17:06:50;19.67;;;8.32;;
47259;SDS011;32999;52.412;4.890;2023-04-16T17:11:53;17.05;;;7.30;;
47259;SDS011;32999;52.412;4.890;2023-04-16T17:16:55;19.20;;;8.02;;
47259;SDS011;32999;52.412;4.890;2023-04-16T17:21:58;16.65;;;8.20;;
47259;SDS011;32999;52.412;4.890;2023-04-16T17:27:01;14.23;;;7.03;;
47259;SDS011;32999;52.412;4.890;2023-04-16T17:32:04;14.17;;;7.87;;
47259;SDS011;32999;52.412;4.890;2023-04-16T17:37:05;15.90;;;8.05;;
47259;SDS011;32999;52.412;4.890;2023-04-16T17:42:08;16.17;;;8.35;;
47259;SDS011;32999;52.412;4.890;2023-04-16T17:47:10;15.30;;;7.93;;
47259;SDS011;32999;52.412;4.890;2023-04-16T17:52:12;18.85;;;8.00;;
47259;SDS011;32999;52.412;4.890;2023-04-16T17:57:15;18.48;;;9.88;;
47259;SDS011;32999;52.412;4.890;2023-04-16T18:02:17;17.08;;;8.82;;
47259;SDS011;32999;52.412;4.890;2023-04-16T18:07:19;23.75;;;12.45;;
47259;SDS011;32999;52.412;4.890;2023-04-16T18:12:22;21.77;;;9.10;;
47259;SDS011;32999;52.412;4.890;2023-04-16T18:17:24;21.67;;;9.13;;
47259;SDS011;32999;52.412;4.890;2023-04-16T18:22:26;18.55;;;9.55;;
47259;SDS011;32999;52.412;4.890;2023-04-16T18:27:29;18.30;;;10.05;;
47259;SDS011;32999;52.412;4.890;2023-04-16T18:32:31;17.80;;;9.82;;
47259;SDS011;32999;52.412;4.890;2023-04-16T18:37:33;22.20;;;10.52;;
47259;SDS011;32999;52.412;4.890;2023-04-16T18:42:41;21.27;;;10.77;;
47259;SDS011;32999;52.412;4.890;2023-04-16T18:47:43;26.63;;;12.02;;
47259;SDS011;32999;52.412;4.890;2023-04-16T19:09:55;22.10;;;12.75;;
47259;SDS011;32999;52.412;4.890;2023-04-16T19:14:59;25.05;;;12.45;;
47259;SDS011;32999;52.412;4.890;2023-04-16T19:20:04;26.08;;;11.45;;
47259;SDS011;32999;52.412;4.890;2023-04-16T19:25:11;21.58;;;10.73;;
47259;SDS011;32999;52.412;4.890;2023-04-16T19:30:13;20.95;;;10.88;;
47259;SDS011;32999;52.412;4.890;2023-04-16T19:35:15;23.92;;;11.95;;
47259;SDS011;32999;52.412;4.890;2023-04-16T19:40:19;23.40;;;12.93;;
47259;SDS011;32999;52.412;4.890;2023-04-16T19:51:01;19.85;;;11.40;;
47259;SDS011;32999;52.412;4.890;2023-04-16T19:56:09;17.10;;;9.90;;
47259;SDS011;32999;52.412;4.890;2023-04-16T20:01:13;17.48;;;9.45;;
47259;SDS011;32999;52.412;4.890;2023-04-16T20:06:25;19.75;;;10.95;;
47259;SDS011;32999;52.412;4.890;2023-04-16T20:11:28;21.23;;;10.95;;
47259;SDS011;32999;52.412;4.890;2023-04-16T20:16:30;19.95;;;9.68;;
47259;SDS011;32999;52.412;4.890;2023-04-16T20:21:32;24.17;;;11.38;;
47259;SDS011;32999;52.412;4.890;2023-04-16T20:26:35;22.27;;;11.40;;
47259;SDS011;32999;52.412;4.890;2023-04-16T20:31:37;19.25;;;11.02;;
47259;SDS011;32999;52.412;4.890;2023-04-16T20:36:41;22.00;;;11.60;;
47259;SDS011;32999;52.412;4.890;2023-04-16T20:41:49;25.50;;;12.20;;
47259;SDS011;32999;52.412;4.890;2023-04-16T20:46:56;34.88;;;15.10;;
47259;SDS011;32999;52.412;4.890;2023-04-16T20:52:00;22.63;;;12.07;;
47259;SDS011;32999;52.412;4.890;2023-04-16T20:57:04;30.07;;;13.93;;
47259;SDS011;32999;52.412;4.890;2023-04-16T21:02:06;21.48;;;11.75;;
47259;SDS011;32999;52.412;4.890;2023-04-16T21:07:08;21.65;;;10.95;;
47259;SDS011;32999;52.412;4.890;2023-04-16T21:12:11;21.08;;;11.32;;
47259;SDS011;32999;52.412;4.890;2023-04-16T21:17:13;20.55;;;11.80;;
47259;SDS011;32999;52.412;4.890;2023-04-16T21:22:15;27.48;;;13.27;;
47259;SDS011;32999;52.412;4.890;2023-04-16T21:27:18;27.38;;;12.75;;
47259;SDS011;32999;52.412;4.890;2023-04-16T21:32:25;24.35;;;12.07;;
47259;SDS011;32999;52.412;4.890;2023-04-16T21:37:26;28.52;;;12.50;;
47259;SDS011;32999;52.412;4.890;2023-04-16T21:42:30;30.88;;;12.50;;
47259;SDS011;32999;52.412;4.890;2023-04-16T21:47:31;28.85;;;13.60;;
47259;SDS011;32999;52.412;4.890;2023-04-16T21:52:33;23.60;;;12.60;;
47259;SDS011;32999;52.412;4.890;2023-04-16T21:57:41;23.90;;;12.82;;
47259;SDS011;32999;52.412;4.890;2023-04-16T22:02:42;27.85;;;15.35;;
47259;SDS011;32999;52.412;4.890;2023-04-16T22:07:45;31.90;;;15.55;;
47259;SDS011;32999;52.412;4.890;2023-04-16T22:12:48;38.63;;;17.50;;
47259;SDS011;32999;52.412;4.890;2023-04-16T22:17:52;30.35;;;16.58;;
47259;SDS011;32999;52.412;4.890;2023-04-16T22:22:54;31.52;;;15.23;;
47259;SDS011;32999;52.412;4.890;2023-04-16T22:27:59;24.05;;;13.85;;
47259;SDS011;32999;52.412;4.890;2023-04-16T22:33:01;27.45;;;15.63;;
47259;SDS011;32999;52.412;4.890;2023-04-16T22:38:08;28.50;;;15.65;;
47259;SDS011;32999;52.412;4.890;2023-04-16T22:43:11;29.63;;;15.05;;
47259;SDS011;32999;52.412;4.890;2023-04-16T22:48:13;26.75;;;14.25;;
47259;SDS011;32999;52.412;4.890;2023-04-16T22:53:16;24.90;;;13.80;;
47259;SDS011;32999;52.412;4.890;2023-04-16T22:58:19;26.40;;;14.88;;
47259;SDS011;32999;52.412;4.890;2023-04-16T23:03:22;28.52;;;14.85;;
47259;SDS011;32999;52.412;4.890;2023-04-16T23:08:23;29.15;;;15.63;;
47259;SDS011;32999;52.412;4.890;2023-04-16T23:13:26;31.38;;;14.80;;
47259;SDS011;32999;52.412;4.890;2023-04-16T23:18:28;33.28;;;16.05;;
47259;SDS011;32999;52.412;4.890;2023-04-16T23:23:32;26.45;;;13.75;;
47259;SDS011;32999;52.412;4.890;2023-04-16T23:28:44;29.98;;;13.63;;
47259;SDS011;32999;52.412;4.890;2023-04-16T23:33:45;30.02;;;13.13;;
47259;SDS011;32999;52.412;4.890;2023-04-16T23:38:47;30.02;;;13.98;;
47259;SDS011;32999;52.412;4.890;2023-04-16T23:43:57;23.88;;;12.70;;
47259;SDS011;32999;52.412;4.890;2023-04-16T23:48:58;24.35;;;13.20;;
47259;SDS011;32999;52.412;4.890;2023-04-16T23:54:00;31.35;;;14.80;;
47259;SDS011;32999;52.412;4.890;2023-04-16T23:59:03;32.33;;;14.90;;
